createdAt,value
2019-05-20T00:02:06.182Z,16.27
2019-05-20T00:04:38.625Z,16.07
2019-05-20T00:07:11.022Z,16.63
2019-05-20T00:09:43.364Z,15.63
2019-05-20T00:12:15.570Z,17.30
2019-05-20T00:14:47.641Z,16.97
2019-05-20T00:17:19.524Z,15.27
2019-05-20T00:19:51.379Z,16.37
2019-05-20T00:22:23.995Z,17.00
2019-05-20T00:24:56.058Z,17.23
2019-05-20T00:27:27.907Z,16.67
2019-05-20T00:30:00.264Z,16.43
2019-05-20T00:32:40.783Z,16.00
2019-05-20T00:35:06.008Z,16.20
2019-05-20T00:37:38.175Z,16.97
2019-05-20T00:40:10.664Z,17.40
2019-05-20T00:42:42.894Z,16.17
2019-05-20T00:45:15.036Z,17.23
2019-05-20T00:47:46.857Z,16.33
2019-05-20T00:50:18.867Z,16.80
2019-05-20T00:52:50.923Z,16.73
2019-05-20T00:55:24.772Z,16.73
2019-05-20T00:57:56.611Z,16.87
2019-05-20T01:00:28.675Z,16.67
2019-05-20T01:03:00.921Z,17.07
2019-05-20T01:05:32.821Z,17.90
2019-05-20T01:08:04.617Z,17.23
2019-05-20T01:10:37.125Z,18.03
2019-05-20T01:13:08.944Z,17.67
2019-05-20T01:15:41.060Z,16.83
2019-05-20T01:18:12.899Z,16.57
2019-05-20T01:20:45.221Z,16.67
2019-05-20T01:23:17.523Z,16.73
2019-05-20T01:25:49.435Z,17.43
2019-05-20T01:28:21.734Z,17.40
2019-05-20T01:30:53.662Z,17.03
2019-05-20T01:33:25.729Z,17.87
2019-05-20T01:35:57.729Z,17.87
2019-05-20T01:38:29.919Z,17.33
2019-05-20T01:41:01.792Z,17.40
2019-05-20T01:43:34.091Z,17.87
2019-05-20T01:46:06.142Z,17.63
2019-05-20T01:48:38.121Z,17.57
2019-05-20T01:51:10.410Z,17.60
2019-05-20T01:53:42.471Z,18.20
2019-05-20T01:56:14.206Z,17.50
2019-05-20T01:58:46.046Z,18.30
2019-05-20T02:01:17.812Z,17.70
2019-05-20T02:03:50.087Z,17.83
2019-05-20T02:06:22.493Z,17.47
2019-05-20T02:08:54.435Z,17.70
2019-05-20T02:11:26.892Z,18.27
2019-05-20T02:14:06.109Z,17.40
2019-05-20T02:16:37.959Z,17.67
2019-05-20T02:19:10.115Z,17.10
2019-05-20T02:21:42.020Z,18.33
2019-05-20T02:24:14.081Z,18.07
2019-05-20T02:26:46.136Z,18.30
2019-05-20T02:29:18.049Z,17.67
2019-05-20T02:31:49.792Z,18.10
2019-05-20T02:34:22.311Z,17.93
2019-05-20T02:36:54.447Z,18.87
2019-05-20T02:39:26.943Z,19.00
2019-05-20T02:41:59.359Z,16.53
2019-05-20T02:44:31.409Z,18.17
2019-05-20T02:47:03.500Z,18.13
2019-05-20T02:49:35.588Z,18.40
2019-05-20T02:52:07.555Z,17.23
2019-05-20T02:54:40.068Z,17.53
2019-05-20T02:57:11.898Z,18.73
2019-05-20T02:59:43.946Z,18.63
2019-05-20T03:02:15.986Z,18.77
2019-05-20T03:04:47.961Z,17.97
2019-05-20T03:07:20.160Z,18.60
2019-05-20T03:09:52.275Z,17.87
2019-05-20T03:12:24.594Z,18.30
2019-05-20T03:14:56.385Z,17.77
2019-05-20T03:17:28.455Z,18.67
2019-05-20T03:20:00.617Z,19.23
2019-05-20T03:22:32.932Z,18.10
2019-05-20T03:25:05.273Z,19.67
2019-05-20T03:27:37.323Z,18.67
2019-05-20T03:30:09.541Z,19.00
2019-05-20T03:32:41.697Z,18.70
2019-05-20T03:35:13.624Z,18.67
2019-05-20T03:37:45.953Z,19.97
2019-05-20T03:40:17.948Z,19.67
2019-05-20T03:42:50.298Z,19.30
2019-05-20T03:45:22.152Z,18.23
2019-05-20T03:47:54.198Z,19.00
2019-05-20T03:50:26.543Z,19.00
2019-05-20T03:52:58.499Z,18.47
2019-05-20T03:55:30.926Z,18.90
2019-05-20T03:58:03.207Z,19.17
2019-05-20T04:00:41.307Z,18.87
2019-05-20T04:03:13.578Z,18.43
2019-05-20T04:05:45.469Z,18.97
2019-05-20T04:08:17.571Z,18.73
2019-05-20T04:10:49.383Z,19.63
2019-05-20T04:13:21.236Z,19.07
2019-05-20T04:15:53.080Z,20.20
2019-05-20T04:18:24.881Z,19.20
2019-05-20T04:20:56.718Z,19.00
2019-05-20T04:23:28.678Z,19.63
2019-05-20T04:26:00.603Z,17.60
2019-05-20T04:28:32.919Z,18.83
2019-05-20T04:31:04.846Z,19.90
2019-05-20T04:33:37.373Z,18.93
2019-05-20T04:36:09.573Z,18.03
2019-05-20T04:38:41.727Z,18.87
2019-05-20T04:41:13.568Z,18.80
2019-05-20T04:43:45.677Z,17.87
2019-05-20T04:46:17.756Z,17.97
2019-05-20T04:48:49.978Z,18.20
2019-05-20T04:51:22.195Z,18.43
2019-05-20T04:53:53.982Z,17.37
2019-05-20T04:56:29.252Z,17.33
2019-05-20T04:58:59.845Z,17.47
2019-05-20T05:01:32.040Z,18.50
2019-05-20T05:04:04.099Z,16.97
2019-05-20T05:06:36.443Z,17.53
2019-05-20T05:09:08.303Z,19.13
2019-05-20T05:11:40.252Z,19.13
2019-05-20T05:14:11.966Z,18.13
2019-05-20T05:16:43.864Z,18.47
2019-05-20T05:19:16.044Z,18.67
2019-05-20T05:21:48.521Z,18.70
2019-05-20T05:24:21.247Z,18.07
2019-05-20T05:26:53.431Z,17.63
2019-05-20T05:29:25.310Z,18.50
2019-05-20T05:31:57.616Z,18.23
2019-05-20T05:34:29.970Z,17.80
2019-05-20T05:37:01.901Z,17.90
2019-05-20T05:39:33.833Z,18.27
2019-05-20T05:42:05.593Z,17.20
2019-05-20T05:44:37.683Z,18.47
2019-05-20T05:47:09.503Z,17.93
2019-05-20T05:49:41.718Z,18.00
2019-05-20T05:52:14.022Z,17.50
2019-05-20T05:54:46.120Z,17.27
2019-05-20T05:57:17.859Z,16.23
2019-05-20T05:59:49.969Z,16.67
2019-05-20T06:02:22.157Z,16.60
2019-05-20T06:04:54.568Z,16.10
2019-05-20T06:07:26.469Z,15.00
2019-05-20T06:09:58.574Z,15.03
2019-05-20T06:12:30.871Z,15.23
2019-05-20T06:15:03.217Z,15.60
2019-05-20T06:17:35.058Z,15.30
2019-05-20T06:20:07.223Z,15.47
2019-05-20T06:22:39.208Z,14.27
2019-05-20T06:25:11.972Z,14.67
2019-05-20T06:27:44.289Z,15.30
2019-05-20T06:30:16.520Z,13.93
2019-05-20T06:32:48.429Z,14.80
2019-05-20T06:35:20.399Z,14.80
2019-05-20T06:37:54.832Z,14.97
2019-05-20T06:40:26.985Z,15.10
2019-05-20T06:42:59.032Z,14.50
2019-05-20T06:45:31.378Z,12.83
2019-05-20T06:48:03.231Z,14.10
2019-05-20T06:50:35.214Z,13.67
2019-05-20T06:53:07.274Z,13.50
2019-05-20T06:55:39.940Z,12.90
2019-05-20T06:58:12.588Z,12.67
2019-05-20T07:00:44.595Z,13.30
2019-05-20T07:03:16.570Z,11.97
2019-05-20T07:05:48.414Z,12.23
2019-05-20T07:08:20.247Z,11.40
2019-05-20T07:10:52.197Z,11.60
2019-05-20T07:13:24.041Z,11.53
2019-05-20T07:15:56.399Z,11.73
2019-05-20T07:18:28.401Z,11.80
2019-05-20T07:21:00.544Z,11.37
2019-05-20T07:23:32.797Z,11.57
2019-05-20T07:26:04.866Z,10.73
2019-05-20T07:28:36.667Z,11.37
2019-05-20T07:31:08.504Z,11.20
2019-05-20T07:33:40.800Z,10.43
2019-05-20T07:36:12.721Z,10.30
2019-05-20T07:38:44.898Z,9.23
2019-05-20T07:41:16.950Z,10.27
2019-05-20T07:43:49.056Z,10.17
2019-05-20T07:46:21.090Z,9.07
2019-05-20T07:48:53.395Z,9.40
2019-05-20T07:51:26.332Z,9.90
2019-05-20T07:54:00.246Z,8.93
2019-05-20T07:56:36.071Z,8.43
2019-05-20T07:59:11.602Z,9.13
2019-05-20T08:01:43.468Z,8.70
2019-05-20T08:04:15.322Z,8.87
2019-05-20T08:06:47.518Z,10.17
2019-05-20T08:09:19.716Z,14.40
2019-05-20T08:11:51.810Z,8.63
2019-05-20T08:14:23.984Z,9.43
2019-05-20T08:16:56.065Z,8.67
2019-05-20T08:19:27.923Z,8.53
2019-05-20T08:21:59.747Z,9.20
2019-05-20T08:24:31.609Z,8.63
2019-05-20T08:27:03.884Z,9.27
2019-05-20T08:29:35.783Z,9.20
2019-05-20T08:32:07.778Z,9.20
2019-05-20T08:34:40.503Z,10.20
2019-05-20T08:37:12.625Z,9.80
2019-05-20T08:39:45.145Z,9.13
2019-05-20T08:42:17.020Z,9.10
2019-05-20T08:44:48.956Z,8.73
2019-05-20T08:47:20.751Z,8.07
2019-05-20T08:49:53.063Z,8.20
2019-05-20T08:52:25.263Z,11.93
2019-05-20T08:54:57.498Z,8.87
2019-05-20T08:57:29.431Z,8.17
2019-05-20T09:00:01.347Z,10.40
2019-05-20T09:02:33.207Z,8.40
2019-05-20T09:05:05.195Z,8.83
2019-05-20T09:07:37.221Z,8.10
2019-05-20T09:10:09.300Z,7.17
2019-05-20T09:12:41.160Z,8.07
2019-05-20T09:15:13.484Z,9.53
2019-05-20T09:17:45.848Z,7.37
2019-05-20T09:20:18.351Z,6.77
2019-05-20T09:22:50.338Z,7.30
2019-05-20T09:25:29.125Z,7.60
2019-05-20T09:28:00.936Z,6.93
2019-05-20T09:30:33.194Z,6.67
2019-05-20T09:33:05.572Z,6.70
2019-05-20T09:35:37.648Z,6.83
2019-05-20T09:38:19.434Z,6.93
2019-05-20T09:40:45.493Z,6.17
2019-05-20T09:43:17.602Z,6.27
2019-05-20T09:46:05.809Z,6.13
2019-05-20T09:48:25.265Z,9.13
2019-05-20T09:50:57.113Z,6.67
2019-05-20T09:53:29.107Z,6.60
2019-05-20T09:56:00.985Z,6.13
2019-05-20T09:58:32.828Z,5.17
2019-05-20T10:01:04.724Z,5.10
2019-05-20T10:03:36.547Z,5.37
2019-05-20T10:06:08.765Z,5.40
2019-05-20T10:08:44.993Z,5.63
2019-05-20T10:11:17.084Z,6.20
2019-05-20T10:13:49.148Z,5.83
2019-05-20T10:16:20.928Z,6.83
2019-05-20T10:18:55.318Z,6.03
2019-05-20T10:21:26.757Z,7.43
2019-05-20T10:23:58.831Z,6.53
2019-05-20T10:26:30.803Z,5.87
2019-05-20T10:29:02.819Z,6.20
2019-05-20T10:31:35.098Z,5.77
2019-05-20T10:34:07.145Z,6.50
2019-05-20T10:38:59.099Z,5.60
2019-05-20T10:41:29.795Z,5.97
2019-05-20T10:44:02.397Z,5.80
2019-05-20T10:46:34.702Z,6.43
2019-05-20T10:49:06.782Z,5.40
2019-05-20T10:51:39.363Z,5.43
2019-05-20T10:54:11.355Z,4.87
2019-05-20T10:56:43.307Z,5.50
2019-05-20T10:59:15.273Z,6.00
2019-05-20T11:01:47.332Z,5.60
2019-05-20T11:04:19.842Z,5.80
2019-05-20T11:06:54.045Z,6.17
2019-05-20T11:09:25.958Z,5.80
2019-05-20T11:11:58.118Z,6.60
2019-05-20T11:14:30.222Z,5.40
2019-05-20T11:17:02.003Z,5.17
2019-05-20T11:19:34.304Z,5.37
2019-05-20T11:22:06.291Z,5.80
2019-05-20T11:24:38.159Z,6.17
2019-05-20T11:27:10.155Z,6.20
2019-05-20T11:29:42.301Z,5.80
2019-05-20T11:32:14.303Z,5.57
2019-05-20T11:34:46.954Z,6.00
2019-05-20T11:37:19.019Z,7.07
2019-05-20T11:39:50.799Z,5.97
2019-05-20T11:42:23.110Z,6.63
2019-05-20T11:44:54.980Z,5.90
2019-05-20T11:47:27.061Z,6.90
2019-05-20T11:49:59.102Z,6.53
2019-05-20T11:52:31.024Z,7.30
2019-05-20T11:55:03.408Z,6.17
2019-05-20T11:57:35.586Z,6.83
2019-05-20T12:00:08.656Z,6.67
2019-05-20T12:02:40.515Z,7.17
2019-05-20T12:05:12.696Z,7.07
2019-05-20T12:07:44.809Z,8.70
2019-05-20T12:10:16.981Z,7.63
2019-05-20T12:12:48.988Z,7.03
2019-05-20T12:15:20.997Z,7.67
2019-05-20T12:17:53.082Z,8.47
2019-05-20T12:20:24.840Z,6.80
2019-05-20T12:22:57.454Z,8.20
2019-05-20T12:25:29.295Z,7.47
2019-05-20T12:28:01.208Z,7.00
2019-05-20T12:30:33.242Z,6.90
2019-05-20T12:33:18.490Z,7.93
2019-05-20T12:35:39.178Z,7.40
2019-05-20T12:38:11.487Z,7.37
2019-05-20T12:40:43.302Z,7.07
2019-05-20T12:43:15.092Z,7.07
2019-05-20T12:45:47.478Z,7.13
2019-05-20T12:48:19.530Z,6.67
2019-05-20T12:50:51.351Z,7.37
2019-05-20T12:53:23.284Z,7.67
2019-05-20T12:55:55.271Z,7.33
2019-05-20T12:58:27.410Z,7.40
2019-05-20T13:00:59.638Z,7.43
2019-05-20T13:03:31.519Z,6.93
2019-05-20T13:06:03.267Z,8.10
2019-05-20T13:08:35.321Z,7.40
2019-05-20T13:11:07.266Z,7.33
2019-05-20T13:13:39.165Z,8.17
2019-05-20T13:16:11.493Z,8.13
2019-05-20T13:18:55.430Z,7.80
2019-05-20T13:21:18.427Z,7.27
2019-05-20T13:23:50.639Z,7.67
2019-05-20T13:26:22.398Z,9.23
2019-05-20T13:28:58.923Z,7.40
2019-05-20T13:31:28.393Z,7.87
2019-05-20T13:34:00.407Z,7.73
2019-05-20T13:36:32.732Z,7.87
2019-05-20T13:39:06.185Z,7.90
2019-05-20T13:41:38.414Z,7.70
2019-05-20T13:44:10.614Z,7.27
2019-05-20T13:46:42.976Z,7.77
2019-05-20T13:49:15.391Z,20.50
2019-05-20T13:51:47.418Z,7.67
2019-05-20T13:54:19.619Z,8.23
2019-05-20T13:56:51.957Z,8.80
2019-05-20T13:59:23.887Z,8.67
2019-05-20T14:01:55.603Z,8.93
2019-05-20T14:04:27.800Z,7.73
2019-05-20T14:06:59.846Z,8.33
2019-05-20T14:09:31.905Z,8.53
2019-05-20T14:12:04.071Z,9.40
2019-05-20T14:14:36.033Z,12.77
2019-05-20T14:17:07.892Z,9.73
2019-05-20T14:19:39.830Z,9.27
2019-05-20T14:22:11.845Z,10.60
2019-05-20T14:24:43.829Z,9.70
2019-05-20T14:27:15.842Z,9.77
2019-05-20T14:29:48.314Z,9.17
2019-05-20T14:32:20.471Z,9.53
2019-05-20T14:34:52.836Z,9.97
2019-05-20T14:37:27.649Z,10.27
2019-05-20T14:40:00.056Z,10.90
2019-05-20T14:42:31.963Z,12.00
2019-05-20T14:45:05.876Z,11.77
2019-05-20T14:47:38.038Z,12.37
2019-05-20T14:50:10.392Z,12.87
2019-05-20T14:52:42.437Z,12.33
2019-05-20T14:55:20.289Z,12.77
2019-05-20T14:57:52.274Z,13.87
2019-05-20T15:00:24.192Z,14.17
2019-05-20T15:02:56.789Z,16.77
2019-05-20T15:05:28.767Z,14.67
2019-05-20T15:08:01.021Z,14.67
2019-05-20T15:10:33.370Z,14.33
2019-05-20T15:13:05.633Z,14.93
2019-05-20T15:15:37.688Z,13.93
2019-05-20T15:18:09.807Z,6.37
2019-05-20T15:20:41.691Z,6.70
2019-05-20T15:23:14.152Z,7.60
2019-05-20T15:25:46.317Z,5.90
2019-05-20T15:28:18.314Z,7.03
2019-05-20T15:30:50.201Z,6.83
2019-05-20T15:33:22.160Z,7.77
2019-05-20T15:35:54.129Z,8.80
2019-05-20T15:38:26.277Z,11.43
2019-05-20T15:40:58.547Z,12.07
2019-05-20T15:43:30.976Z,14.90
2019-05-20T15:46:03.088Z,13.27
2019-05-20T15:48:35.031Z,15.47
2019-05-20T15:51:07.239Z,13.27
2019-05-20T15:53:39.201Z,13.43
2019-05-20T15:56:11.047Z,13.37
2019-05-20T15:58:43.036Z,13.70
2019-05-20T16:01:15.135Z,9.97
2019-05-20T16:03:51.166Z,11.20
2019-05-20T16:06:21.273Z,11.97
2019-05-20T16:08:53.135Z,12.73
2019-05-20T16:11:25.581Z,11.57
2019-05-20T16:13:57.802Z,12.27
2019-05-20T16:16:29.667Z,13.03
2019-05-20T16:19:01.667Z,14.67
2019-05-20T16:21:33.984Z,12.43
2019-05-20T16:24:06.276Z,13.27
2019-05-20T16:26:38.581Z,12.80
2019-05-20T16:29:10.881Z,13.47
2019-05-20T16:31:42.944Z,15.17
2019-05-20T16:34:14.785Z,12.93
2019-05-20T16:36:46.628Z,14.80
2019-05-20T16:39:18.596Z,14.90
2019-05-20T16:41:50.585Z,13.60
2019-05-20T16:44:23.083Z,13.53
2019-05-20T16:46:54.854Z,15.93
2019-05-20T16:49:26.580Z,14.70
2019-05-20T16:51:58.816Z,14.60
2019-05-20T16:54:30.832Z,15.43
2019-05-20T16:57:02.923Z,15.00
2019-05-20T16:59:34.988Z,14.50
2019-05-20T17:02:07.114Z,15.13
2019-05-20T17:04:39.418Z,16.03
2019-05-20T17:07:11.434Z,15.97
2019-05-20T17:09:43.776Z,22.50
2019-05-20T17:12:16.298Z,19.07
2019-05-20T17:14:48.828Z,16.10
2019-05-20T17:17:20.956Z,14.87
2019-05-20T17:19:53.039Z,14.53
2019-05-20T17:22:26.877Z,13.40
2019-05-20T17:24:58.827Z,13.70
2019-05-20T17:27:31.939Z,14.40
2019-05-20T17:30:05.216Z,16.03
2019-05-20T17:32:37.727Z,13.83
2019-05-20T17:35:10.044Z,14.33
2019-05-20T17:37:42.733Z,12.83
2019-05-20T17:40:16.418Z,12.17
2019-05-20T17:42:48.560Z,12.97
2019-05-20T17:45:20.674Z,13.63
2019-05-20T17:47:52.956Z,12.97
2019-05-20T17:50:24.813Z,14.13
2019-05-20T17:52:57.475Z,14.10
2019-05-20T17:55:29.826Z,14.83
2019-05-20T17:58:02.642Z,13.70
2019-05-20T18:00:34.756Z,12.90
2019-05-20T18:03:07.423Z,12.93
2019-05-20T18:05:39.450Z,12.43
2019-05-20T18:08:11.691Z,12.33
2019-05-20T18:10:43.816Z,12.50
2019-05-20T18:13:16.087Z,13.57
2019-05-20T18:15:48.375Z,13.00
2019-05-20T18:18:20.118Z,12.50
2019-05-20T18:20:52.261Z,13.87
2019-05-20T18:23:24.597Z,15.13
2019-05-20T18:25:56.410Z,14.17
2019-05-20T18:28:28.614Z,15.80
2019-05-20T18:31:01.308Z,15.03
2019-05-20T18:33:33.452Z,16.00
2019-05-20T18:36:05.265Z,17.10
2019-05-20T18:38:39.574Z,17.67
2019-05-20T18:41:11.675Z,16.57
2019-05-20T18:43:43.969Z,17.80
2019-05-20T18:46:16.070Z,17.67
2019-05-20T18:48:49.849Z,17.40
2019-05-20T18:51:22.336Z,19.17
2019-05-20T18:53:54.714Z,17.33
2019-05-20T18:56:27.162Z,20.37
2019-05-20T18:58:59.531Z,20.33
2019-05-20T19:01:44.709Z,19.40
2019-05-20T19:04:05.701Z,20.13
2019-05-20T19:06:38.023Z,20.03
2019-05-20T19:09:10.511Z,21.93
2019-05-20T19:11:42.748Z,21.53
2019-05-20T19:14:14.996Z,22.20
2019-05-20T19:16:46.925Z,21.13
2019-05-20T19:19:19.156Z,20.70
2019-05-20T19:21:51.389Z,21.30
2019-05-20T19:24:24.007Z,22.07
2019-05-20T19:26:55.859Z,21.33
2019-05-20T19:29:28.404Z,22.57
2019-05-20T19:32:02.138Z,21.67
2019-05-20T19:34:34.571Z,20.73
2019-05-20T19:37:06.467Z,19.50
2019-05-20T19:39:38.664Z,18.73
2019-05-20T19:42:10.458Z,19.60
2019-05-20T19:44:42.448Z,18.33
2019-05-20T19:47:14.616Z,19.43
2019-05-20T19:49:48.721Z,20.20
2019-05-20T19:52:20.862Z,18.87
2019-05-20T19:54:52.648Z,18.27
2019-05-20T19:57:24.586Z,18.53
2019-05-20T19:59:56.990Z,16.67
2019-05-20T20:02:29.197Z,17.60
2019-05-20T20:05:01.172Z,17.87
2019-05-20T20:07:33.302Z,16.93
2019-05-20T20:10:06.360Z,16.93
2019-05-20T20:12:38.633Z,16.23
2019-05-20T20:15:16.424Z,15.97
2019-05-20T20:17:48.335Z,17.03
2019-05-20T20:20:20.756Z,16.90
2019-05-20T20:22:53.047Z,19.00
2019-05-20T20:25:25.679Z,17.43
2019-05-20T20:27:57.798Z,18.10
2019-05-20T20:30:30.062Z,18.47
2019-05-20T20:33:02.575Z,18.80
2019-05-20T20:35:38.221Z,18.27
2019-05-20T20:38:09.404Z,19.33
2019-05-20T20:40:42.298Z,19.83
2019-05-20T20:43:14.545Z,20.13
2019-05-20T20:45:46.853Z,20.00
2019-05-20T20:48:19.392Z,19.90
2019-05-20T20:50:51.732Z,17.70
2019-05-20T20:53:23.618Z,18.90
2019-05-20T20:55:56.116Z,18.73
2019-05-20T20:58:28.848Z,18.17
2019-05-20T21:01:01.090Z,16.67
2019-05-20T21:03:32.821Z,17.20
2019-05-20T21:06:04.839Z,15.37
2019-05-20T21:08:36.659Z,16.23
2019-05-20T21:11:09.627Z,16.27
2019-05-20T21:13:41.833Z,15.77
2019-05-20T21:16:14.256Z,16.10
2019-05-20T21:18:46.739Z,15.73
2019-05-20T21:21:18.677Z,16.27
2019-05-20T21:23:50.630Z,16.13
2019-05-20T21:26:22.868Z,15.17
2019-05-20T21:28:54.684Z,15.00
2019-05-20T21:31:26.739Z,15.70
2019-05-20T21:33:58.750Z,15.73
2019-05-20T21:36:46.197Z,15.53
2019-05-20T21:39:05.116Z,15.93
2019-05-20T21:41:37.749Z,16.73
2019-05-20T21:44:10.237Z,15.80
2019-05-20T21:46:41.992Z,16.80
2019-05-20T21:49:14.241Z,15.43
2019-05-20T21:51:46.501Z,16.40
2019-05-20T21:54:19.220Z,14.53
2019-05-20T21:56:51.699Z,15.40
2019-05-20T21:59:24.531Z,15.10
2019-05-20T22:01:57.410Z,14.90
2019-05-20T22:04:29.480Z,16.37
2019-05-20T22:07:01.670Z,15.97
2019-05-20T22:09:33.911Z,15.57
2019-05-20T22:12:06.211Z,16.03
2019-05-20T22:14:38.499Z,17.00
2019-05-20T22:17:10.668Z,16.50
2019-05-20T22:19:42.591Z,16.20
2019-05-20T22:22:32.910Z,17.47
2019-05-20T22:25:05.487Z,16.63
2019-05-20T22:27:38.360Z,16.60
2019-05-20T22:30:10.969Z,16.97
2019-05-20T22:32:43.414Z,17.43
2019-05-20T22:35:15.462Z,17.73
2019-05-20T22:37:48.322Z,17.10
2019-05-20T22:40:20.483Z,16.73
2019-05-20T22:42:52.618Z,18.07
2019-05-20T22:45:24.546Z,18.93
2019-05-20T22:47:56.808Z,17.80
2019-05-20T22:50:28.853Z,18.17
2019-05-20T22:53:00.945Z,17.50
2019-05-20T22:55:32.670Z,19.27
2019-05-20T22:58:04.539Z,17.90
2019-05-20T23:00:37.208Z,19.43
2019-05-20T23:03:09.711Z,19.33
2019-05-20T23:05:42.049Z,18.07
2019-05-20T23:08:14.316Z,20.23
2019-05-20T23:10:47.208Z,20.17
2019-05-20T23:13:19.636Z,18.30
2019-05-20T23:15:51.487Z,18.97
2019-05-20T23:18:23.963Z,20.00
2019-05-20T23:20:56.720Z,18.90
2019-05-20T23:23:28.878Z,19.73
2019-05-20T23:26:01.090Z,20.13
2019-05-20T23:28:33.061Z,19.73
2019-05-20T23:31:05.252Z,19.50
2019-05-20T23:33:37.582Z,19.53
2019-05-20T23:36:09.866Z,18.87
2019-05-20T23:38:42.006Z,19.07
2019-05-20T23:41:14.087Z,20.30
2019-05-20T23:43:48.015Z,21.70
2019-05-20T23:46:20.409Z,20.90
2019-05-20T23:48:52.561Z,20.57
2019-05-20T23:51:24.873Z,21.43
2019-05-20T23:53:57.699Z,22.13
2019-05-20T23:56:29.875Z,21.03
2019-05-20T23:59:01.976Z,20.83
